createdAt,value
2018-04-06T00:01:04.669Z,13.77
2018-04-06T00:03:32.333Z,13.79
2018-04-06T00:06:00.407Z,13.84
2018-04-06T00:08:28.053Z,13.65
2018-04-06T00:10:55.673Z,13.56
2018-04-06T00:13:23.597Z,13.57
2018-04-06T00:15:51.253Z,13.57
2018-04-06T00:18:18.883Z,13.52
2018-04-06T00:20:46.776Z,13.54
2018-04-06T00:23:14.439Z,13.71
2018-04-06T00:25:42.117Z,13.69
2018-04-06T00:28:09.779Z,13.61
2018-04-06T00:30:37.414Z,13.62
2018-04-06T00:33:05.038Z,13.48
2018-04-06T00:35:32.766Z,13.34
2018-04-06T00:38:00.596Z,13.40
2018-04-06T00:40:28.322Z,13.31
2018-04-06T00:42:56.005Z,13.35
2018-04-06T00:45:23.719Z,13.25
2018-04-06T00:47:51.688Z,13.14
2018-04-06T00:50:19.349Z,13.17
2018-04-06T00:52:47.011Z,13.09
2018-04-06T00:55:14.865Z,13.02
2018-04-06T00:57:42.444Z,13.03
2018-04-06T01:00:10.125Z,13.02
2018-04-06T01:02:37.915Z,13.13
2018-04-06T01:05:05.542Z,13.07
2018-04-06T01:07:33.191Z,13.08
2018-04-06T01:10:00.813Z,13.19
2018-04-06T01:12:28.685Z,13.14
2018-04-06T01:14:56.574Z,13.10
2018-04-06T01:17:24.293Z,13.14
2018-04-06T01:19:51.900Z,13.15
2018-04-06T01:22:19.561Z,13.17
2018-04-06T01:24:47.238Z,13.26
2018-04-06T01:27:15.085Z,13.27
2018-04-06T01:29:42.767Z,13.24
2018-04-06T01:32:10.427Z,13.22
2018-04-06T01:34:38.080Z,13.19
2018-04-06T01:37:05.654Z,13.10
2018-04-06T01:39:33.412Z,13.08
2018-04-06T01:42:01.076Z,13.10
2018-04-06T01:44:28.725Z,13.21
2018-04-06T01:46:56.669Z,13.33
2018-04-06T01:49:24.458Z,13.45
2018-04-06T01:51:52.045Z,13.58
2018-04-06T01:54:19.798Z,13.60
2018-04-06T01:56:47.460Z,13.63
2018-04-06T01:59:15.120Z,13.67
2018-04-06T02:01:42.921Z,13.76
2018-04-06T02:04:10.761Z,13.89
2018-04-06T02:06:38.519Z,13.95
2018-04-06T02:09:06.384Z,14.08
2018-04-06T02:11:34.103Z,14.10
2018-04-06T02:14:01.680Z,14.04
2018-04-06T02:16:29.371Z,13.82
2018-04-06T02:18:57.212Z,13.65
2018-04-06T02:21:24.902Z,13.60
2018-04-06T02:23:52.623Z,13.59
2018-04-06T02:26:20.417Z,13.59
2018-04-06T02:28:48.083Z,13.68
2018-04-06T02:31:15.757Z,13.71
2018-04-06T02:33:43.413Z,13.79
2018-04-06T02:36:11.076Z,13.82
2018-04-06T02:38:38.804Z,13.85
2018-04-06T02:41:06.604Z,13.85
2018-04-06T02:43:34.267Z,13.82
2018-04-06T02:46:01.889Z,13.74
2018-04-06T02:48:29.590Z,13.63
2018-04-06T02:50:57.181Z,13.58
2018-04-06T02:53:25.026Z,13.67
2018-04-06T02:55:52.788Z,13.64
2018-04-06T02:58:20.391Z,13.49
2018-04-06T03:00:48.010Z,13.56
2018-04-06T03:03:15.755Z,13.67
2018-04-06T03:05:43.422Z,13.72
2018-04-06T03:08:11.093Z,13.80
2018-04-06T03:10:38.683Z,13.68
2018-04-06T03:13:06.485Z,13.76
2018-04-06T03:15:34.455Z,13.68
2018-04-06T03:18:02.155Z,13.64
2018-04-06T03:20:29.810Z,13.61
2018-04-06T03:22:57.528Z,13.49
2018-04-06T03:25:25.354Z,13.45
2018-04-06T03:27:53.012Z,13.48
2018-04-06T03:30:20.625Z,13.49
2018-04-06T03:32:48.206Z,13.45
2018-04-06T03:35:15.991Z,13.37
2018-04-06T03:37:43.626Z,13.40
2018-04-06T03:40:11.325Z,13.44
2018-04-06T03:42:39.088Z,13.38
2018-04-06T03:45:06.854Z,13.31
2018-04-06T03:47:34.514Z,13.28
2018-04-06T03:50:02.176Z,13.28
2018-04-06T03:52:29.907Z,13.32
2018-04-06T03:54:57.899Z,13.59
2018-04-06T03:57:25.574Z,13.57
2018-04-06T03:59:53.226Z,13.45
2018-04-06T04:02:20.855Z,13.39
2018-04-06T04:04:48.554Z,13.42
2018-04-06T04:07:16.211Z,13.42
2018-04-06T04:09:43.875Z,13.42
2018-04-06T04:12:11.538Z,13.41
2018-04-06T04:14:39.383Z,13.43
2018-04-06T04:17:07.065Z,13.52
2018-04-06T04:19:34.736Z,13.57
2018-04-06T04:22:02.351Z,13.54
2018-04-06T04:24:30.050Z,13.53
2018-04-06T04:26:57.649Z,13.56
2018-04-06T04:29:25.561Z,13.52
2018-04-06T04:31:53.249Z,13.37
2018-04-06T04:34:20.906Z,13.41
2018-04-06T04:36:48.577Z,13.36
2018-04-06T04:39:16.236Z,13.40
2018-04-06T04:41:43.959Z,13.32
2018-04-06T04:44:11.976Z,13.41
2018-04-06T04:46:39.877Z,13.38
2018-04-06T04:49:07.495Z,13.36
2018-04-06T04:51:35.167Z,13.43
2018-04-06T04:54:02.823Z,13.49
2018-04-06T04:56:30.422Z,13.36
2018-04-06T04:58:58.138Z,13.41
2018-04-06T05:01:25.807Z,13.45
2018-04-06T05:03:53.548Z,13.58
2018-04-06T05:06:21.224Z,13.58
2018-04-06T05:08:49.030Z,13.46
2018-04-06T05:11:16.671Z,13.58
2018-04-06T05:13:44.390Z,13.66
2018-04-06T05:16:12.198Z,13.66
2018-04-06T05:18:39.787Z,13.66
2018-04-06T05:21:07.411Z,13.67
2018-04-06T05:23:35.187Z,13.70
2018-04-06T05:26:03.054Z,13.74
2018-04-06T05:28:30.710Z,13.95
2018-04-06T05:30:58.560Z,14.14
2018-04-06T05:33:26.236Z,14.33
2018-04-06T05:35:53.906Z,14.51
2018-04-06T05:38:21.549Z,14.88
2018-04-06T05:40:49.231Z,15.44
2018-04-06T05:43:16.853Z,16.25
2018-04-06T05:45:44.682Z,17.01
2018-04-06T05:48:12.424Z,17.02
2018-04-06T05:50:40.011Z,16.92
2018-04-06T05:53:07.747Z,17.06
2018-04-06T05:55:35.603Z,17.26
2018-04-06T05:58:03.272Z,17.12
2018-04-06T06:00:30.927Z,17.24
2018-04-06T06:02:58.533Z,18.14
2018-04-06T06:05:26.255Z,18.86
2018-04-06T06:07:53.920Z,19.71
2018-04-06T06:10:21.578Z,20.28
2018-04-06T06:12:49.163Z,21.17
2018-04-06T06:15:16.786Z,21.79
2018-04-06T06:17:44.573Z,22.57
2018-04-06T06:20:12.236Z,23.05
2018-04-06T06:22:39.875Z,23.34
2018-04-06T06:25:07.455Z,23.54
2018-04-06T06:27:35.218Z,24.15
2018-04-06T06:30:03.091Z,23.78
2018-04-06T06:32:30.881Z,24.17
2018-04-06T06:34:58.840Z,24.06
2018-04-06T06:37:26.687Z,23.94
2018-04-06T06:39:54.483Z,23.36
2018-04-06T06:42:22.332Z,22.83
2018-04-06T06:44:50.086Z,22.44
2018-04-06T06:47:17.758Z,21.96
2018-04-06T06:49:45.414Z,22.08
2018-04-06T06:52:13.081Z,21.83
2018-04-06T06:54:40.736Z,21.60
2018-04-06T06:57:08.579Z,21.47
2018-04-06T06:59:36.471Z,21.51
2018-04-06T07:02:04.058Z,21.07
2018-04-06T07:04:31.673Z,20.93
2018-04-06T07:06:59.294Z,20.95
2018-04-06T07:09:26.911Z,20.82
2018-04-06T07:11:54.578Z,20.65
2018-04-06T07:14:22.241Z,20.51
2018-04-06T07:16:49.891Z,20.18
2018-04-06T07:19:17.460Z,19.74
2018-04-06T07:21:45.222Z,19.65
2018-04-06T07:24:12.890Z,19.51
2018-04-06T07:26:40.556Z,19.49
2018-04-06T07:29:08.216Z,19.56
2018-04-06T07:31:36.065Z,19.71
2018-04-06T07:34:03.742Z,19.64
2018-04-06T07:36:34.277Z,19.72
2018-04-06T07:39:01.922Z,19.97
2018-04-06T07:41:29.801Z,20.72
2018-04-06T07:43:57.550Z,20.76
2018-04-06T07:46:25.328Z,21.35
2018-04-06T07:48:52.993Z,21.80
2018-04-06T07:51:20.854Z,22.30
2018-04-06T07:53:48.510Z,22.39
2018-04-06T07:56:16.182Z,22.26
2018-04-06T07:58:43.835Z,22.92
2018-04-06T08:01:11.817Z,23.41
2018-04-06T08:03:39.414Z,23.62
2018-04-06T08:06:07.244Z,23.70
2018-04-06T08:08:34.908Z,22.67
2018-04-06T08:11:02.741Z,21.85
2018-04-06T08:13:30.466Z,21.14
2018-04-06T08:15:58.047Z,20.74
2018-04-06T08:18:25.639Z,20.33
2018-04-06T08:20:53.611Z,20.10
2018-04-06T08:23:21.319Z,19.94
2018-04-06T08:25:49.042Z,19.75
2018-04-06T08:28:16.818Z,19.78
2018-04-06T08:30:44.474Z,19.77
2018-04-06T08:33:12.194Z,19.71
2018-04-06T08:35:40.005Z,19.67
2018-04-06T08:38:07.692Z,19.92
2018-04-06T08:40:35.543Z,20.13
2018-04-06T08:43:03.161Z,20.07
2018-04-06T08:45:30.859Z,20.23
2018-04-06T08:47:58.697Z,20.41
2018-04-06T08:50:26.438Z,20.56
2018-04-06T08:52:54.058Z,20.73
2018-04-06T08:55:21.625Z,20.72
2018-04-06T08:57:49.527Z,20.53
2018-04-06T09:00:17.247Z,20.61
2018-04-06T09:02:44.998Z,20.60
2018-04-06T09:05:12.767Z,20.63
2018-04-06T09:07:40.428Z,20.95
2018-04-06T09:10:08.102Z,21.39
2018-04-06T09:12:35.751Z,21.69
2018-04-06T09:15:03.415Z,22.03
2018-04-06T09:17:31.066Z,22.27
2018-04-06T09:19:58.842Z,22.07
2018-04-06T09:22:26.511Z,22.45
2018-04-06T09:24:54.170Z,22.80
2018-04-06T09:27:21.797Z,23.04
2018-04-06T09:29:49.490Z,23.00
2018-04-06T09:32:17.327Z,22.96
2018-04-06T09:34:44.942Z,23.25
2018-04-06T09:37:12.510Z,23.66
2018-04-06T09:39:40.134Z,23.49
2018-04-06T09:42:07.757Z,23.69
2018-04-06T09:44:35.340Z,23.85
2018-04-06T09:47:02.910Z,23.85
2018-04-06T09:49:30.591Z,23.90
2018-04-06T09:51:58.253Z,24.07
2018-04-06T09:54:25.951Z,24.41
2018-04-06T09:56:53.774Z,24.09
2018-04-06T09:59:21.433Z,24.40
2018-04-06T10:01:49.159Z,24.49
2018-04-06T10:04:16.988Z,24.65
2018-04-06T10:06:44.606Z,24.29
2018-04-06T10:09:12.304Z,23.79
2018-04-06T10:11:39.954Z,22.88
2018-04-06T10:14:07.533Z,23.19
2018-04-06T10:16:35.111Z,23.32
2018-04-06T10:19:02.760Z,23.53
2018-04-06T10:21:30.336Z,23.59
2018-04-06T10:23:57.939Z,23.70
2018-04-06T10:26:25.573Z,23.93
2018-04-06T10:28:53.198Z,24.16
2018-04-06T10:31:21.042Z,23.97
2018-04-06T10:33:48.721Z,24.17
2018-04-06T10:36:16.303Z,24.17
2018-04-06T10:38:44.046Z,24.09
2018-04-06T10:41:11.785Z,23.52
2018-04-06T10:43:39.544Z,22.79
2018-04-06T10:46:07.447Z,23.30
2018-04-06T10:48:35.099Z,22.77
2018-04-06T10:51:02.694Z,23.12
2018-04-06T10:53:30.293Z,23.51
2018-04-06T10:55:58.013Z,23.72
2018-04-06T10:58:25.598Z,23.67
2018-04-06T11:00:53.185Z,23.97
2018-04-06T11:03:20.869Z,24.95
2018-04-06T11:05:48.531Z,25.89
2018-04-06T11:08:16.204Z,26.52
2018-04-06T11:10:44.045Z,25.57
2018-04-06T11:13:11.622Z,24.96
2018-04-06T11:15:39.390Z,25.59
2018-04-06T11:18:06.989Z,24.87
2018-04-06T11:20:34.567Z,24.62
2018-04-06T11:23:02.197Z,24.30
2018-04-06T11:25:30.070Z,25.24
2018-04-06T11:27:57.903Z,25.71
2018-04-06T11:30:25.472Z,25.86
2018-04-06T11:32:53.231Z,25.69
2018-04-06T11:35:20.800Z,24.49
2018-04-06T11:37:48.548Z,23.77
2018-04-06T11:40:16.214Z,23.85
2018-04-06T11:42:43.840Z,23.11
2018-04-06T11:45:11.449Z,23.08
2018-04-06T11:47:39.083Z,23.11
2018-04-06T11:50:06.856Z,22.93
2018-04-06T11:52:34.703Z,22.57
2018-04-06T11:55:02.393Z,22.07
2018-04-06T11:57:30.058Z,21.63
2018-04-06T11:59:57.649Z,21.40
2018-04-06T12:02:25.381Z,21.40
2018-04-06T12:04:53.025Z,21.38
2018-04-06T12:07:20.626Z,21.53
2018-04-06T12:09:48.359Z,21.11
2018-04-06T12:12:15.938Z,20.63
2018-04-06T12:14:43.886Z,20.81
2018-04-06T12:17:11.604Z,20.82
2018-04-06T12:19:39.632Z,20.60
2018-04-06T12:22:07.499Z,20.75
2018-04-06T12:24:35.151Z,21.20
2018-04-06T12:27:02.850Z,21.38
2018-04-06T12:29:30.469Z,21.41
2018-04-06T12:31:58.106Z,21.47
2018-04-06T12:34:25.811Z,21.70
2018-04-06T12:36:53.394Z,21.53
2018-04-06T12:39:20.998Z,21.07
2018-04-06T12:41:48.595Z,20.80
2018-04-06T12:44:17.110Z,20.64
2018-04-06T12:46:44.732Z,20.64
2018-04-06T12:49:12.404Z,20.69
2018-04-06T12:51:39.977Z,20.77
2018-04-06T12:54:07.619Z,20.61
2018-04-06T12:56:35.198Z,20.55
2018-04-06T12:59:02.788Z,20.73
2018-04-06T13:01:30.405Z,20.37
2018-04-06T13:03:57.974Z,20.31
2018-04-06T13:06:25.570Z,20.05
2018-04-06T13:08:53.182Z,19.82
2018-04-06T13:11:20.764Z,19.52
2018-04-06T13:13:48.339Z,19.32
2018-04-06T13:16:15.950Z,19.02
2018-04-06T13:18:43.592Z,18.86
2018-04-06T13:21:11.181Z,18.91
2018-04-06T13:23:38.791Z,18.90
2018-04-06T13:26:07.068Z,18.98
2018-04-06T13:28:34.677Z,19.12
2018-04-06T13:31:02.316Z,19.20
2018-04-06T13:33:29.903Z,19.27
2018-04-06T13:35:57.484Z,19.33
2018-04-06T13:38:25.092Z,19.49
2018-04-06T13:40:52.691Z,19.62
2018-04-06T13:43:20.274Z,19.74
2018-04-06T13:45:47.881Z,19.96
2018-04-06T13:48:15.535Z,20.22
2018-04-06T13:50:43.122Z,20.28
2018-04-06T13:53:10.719Z,20.01
2018-04-06T13:55:38.337Z,20.23
2018-04-06T13:58:07.194Z,20.29
2018-04-06T14:00:37.570Z,20.44
2018-04-06T14:03:07.379Z,20.26
2018-04-06T14:05:38.897Z,20.18
2018-04-06T14:08:10.771Z,19.97
2018-04-06T14:10:40.588Z,19.76
2018-04-06T14:13:08.244Z,19.58
2018-04-06T14:15:35.859Z,19.57
2018-04-06T14:18:03.490Z,19.54
2018-04-06T14:20:31.123Z,19.33
2018-04-06T14:22:58.705Z,19.26
2018-04-06T14:25:26.358Z,19.46
2018-04-06T14:27:53.928Z,19.62
2018-04-06T14:30:21.532Z,19.70
2018-04-06T14:32:49.175Z,19.66
2018-04-06T14:35:16.762Z,19.65
2018-04-06T14:37:44.356Z,19.66
2018-04-06T14:40:11.995Z,19.63
2018-04-06T14:42:39.585Z,19.45
2018-04-06T14:45:07.194Z,19.39
2018-04-06T14:47:34.831Z,19.39
2018-04-06T14:50:02.483Z,19.39
2018-04-06T14:52:30.094Z,19.16
2018-04-06T14:54:57.711Z,18.81
2018-04-06T14:57:25.331Z,18.72
2018-04-06T14:59:53.047Z,18.84
2018-04-06T15:02:20.703Z,18.67
2018-04-06T15:04:48.342Z,18.83
2018-04-06T15:07:15.904Z,18.97
2018-04-06T15:09:43.688Z,19.17
2018-04-06T15:12:11.262Z,19.25
2018-04-06T15:14:38.839Z,19.16
2018-04-06T15:17:06.445Z,18.99
2018-04-06T15:19:35.146Z,18.93
2018-04-06T15:22:02.724Z,19.03
2018-04-06T15:24:30.357Z,19.04
2018-04-06T15:26:57.943Z,18.98
2018-04-06T15:29:25.623Z,18.89
2018-04-06T15:31:53.263Z,18.65
2018-04-06T15:34:21.115Z,18.69
2018-04-06T15:36:48.702Z,18.65
2018-04-06T15:39:16.373Z,18.69
2018-04-06T15:41:43.956Z,18.67
2018-04-06T15:44:11.635Z,18.54
2018-04-06T15:46:39.296Z,18.37
2018-04-06T15:49:06.901Z,18.35
2018-04-06T15:51:34.510Z,18.24
2018-04-06T15:54:02.137Z,18.13
2018-04-06T15:56:29.738Z,18.08
2018-04-06T15:58:57.343Z,18.01
2018-04-06T16:01:25.021Z,17.97
2018-04-06T16:03:52.614Z,18.04
2018-04-06T16:06:20.256Z,17.97
2018-04-06T16:08:47.905Z,18.00
2018-04-06T16:11:15.533Z,18.02
2018-04-06T16:13:43.190Z,17.94
2018-04-06T16:16:10.803Z,17.92
2018-04-06T16:18:38.929Z,17.75
2018-04-06T16:21:06.527Z,17.79
2018-04-06T16:23:34.151Z,17.62
2018-04-06T16:26:01.741Z,17.61
2018-04-06T16:28:29.313Z,17.58
2018-04-06T16:30:56.930Z,17.56
2018-04-06T16:33:24.506Z,17.53
2018-04-06T16:35:52.279Z,17.46
2018-04-06T16:38:19.912Z,17.42
2018-04-06T16:40:47.841Z,17.39
2018-04-06T16:43:15.430Z,17.39
2018-04-06T16:45:43.047Z,17.27
2018-04-06T16:48:10.619Z,17.22
2018-04-06T16:50:38.209Z,17.17
2018-04-06T16:53:05.836Z,17.15
2018-04-06T16:55:33.432Z,17.18
2018-04-06T16:58:01.033Z,17.16
2018-04-06T17:00:28.654Z,17.11
2018-04-06T17:02:56.232Z,17.15
2018-04-06T17:05:24.148Z,17.19
2018-04-06T17:07:52.196Z,17.21
2018-04-06T17:10:19.793Z,17.23
2018-04-06T17:12:47.365Z,17.19
2018-04-06T17:15:14.975Z,17.16
2018-04-06T17:17:42.561Z,17.13
2018-04-06T17:20:10.152Z,17.12
2018-04-06T17:22:37.771Z,17.12
2018-04-06T17:25:05.457Z,17.12
2018-04-06T17:27:33.067Z,17.07
2018-04-06T17:30:00.694Z,17.08
2018-04-06T17:32:28.283Z,16.92
2018-04-06T17:34:55.885Z,16.90
2018-04-06T17:37:23.531Z,16.86
2018-04-06T17:39:51.133Z,16.85
2018-04-06T17:42:18.735Z,16.86
2018-04-06T17:44:46.359Z,16.79
2018-04-06T17:47:13.958Z,16.82
2018-04-06T17:49:41.544Z,16.78
2018-04-06T17:52:09.175Z,16.78
2018-04-06T17:54:36.960Z,16.77
2018-04-06T17:57:04.623Z,16.78
2018-04-06T17:59:32.259Z,16.73
2018-04-06T18:02:00.134Z,16.73
2018-04-06T18:04:27.815Z,16.74
2018-04-06T18:06:55.562Z,16.62
2018-04-06T18:09:23.142Z,16.75
2018-04-06T18:11:50.785Z,16.71
2018-04-06T18:14:18.466Z,16.81
2018-04-06T18:16:46.109Z,16.79
2018-04-06T18:19:13.761Z,16.83
2018-04-06T18:21:41.393Z,16.86
2018-04-06T18:24:08.990Z,16.84
2018-04-06T18:26:36.592Z,16.84
2018-04-06T18:29:04.221Z,16.80
2018-04-06T18:31:31.895Z,16.82
2018-04-06T18:33:59.711Z,16.73
2018-04-06T18:36:27.359Z,16.72
2018-04-06T18:38:54.952Z,16.71
2018-04-06T18:41:22.554Z,16.68
2018-04-06T18:43:50.213Z,16.65
2018-04-06T18:46:17.816Z,16.67
2018-04-06T18:48:45.415Z,16.62
2018-04-06T18:51:13.038Z,16.65
2018-04-06T18:53:40.670Z,16.56
2018-04-06T18:56:08.300Z,16.48
2018-04-06T18:58:35.898Z,16.51
2018-04-06T19:01:03.470Z,16.43
2018-04-06T19:03:31.063Z,16.42
2018-04-06T19:05:58.801Z,16.44
2018-04-06T19:08:26.418Z,16.39
2018-04-06T19:10:53.990Z,16.39
2018-04-06T19:13:21.643Z,16.43
2018-04-06T19:15:49.609Z,16.47
2018-04-06T19:18:17.191Z,16.46
2018-04-06T19:20:44.939Z,16.40
2018-04-06T19:23:12.524Z,16.33
2018-04-06T19:25:40.122Z,16.28
2018-04-06T19:28:07.923Z,16.21
2018-04-06T19:30:35.772Z,16.17
2018-04-06T19:33:03.442Z,16.10
2018-04-06T19:35:31.109Z,16.07
2018-04-06T19:37:58.688Z,16.03
2018-04-06T19:40:26.262Z,16.07
2018-04-06T19:42:54.090Z,16.11
2018-04-06T19:45:21.768Z,16.05
2018-04-06T19:47:49.427Z,16.02
2018-04-06T19:50:17.062Z,16.00
2018-04-06T19:52:44.639Z,15.95
2018-04-06T19:55:12.405Z,15.98
2018-04-06T19:57:40.078Z,16.02
2018-04-06T20:00:07.800Z,16.00
2018-04-06T20:02:35.566Z,15.98
2018-04-06T20:05:03.267Z,15.88
2018-04-06T20:07:30.973Z,15.72
2018-04-06T20:09:58.784Z,15.58
2018-04-06T20:12:26.410Z,15.49
2018-04-06T20:14:54.106Z,15.43
2018-04-06T20:17:21.698Z,15.42
2018-04-06T20:19:49.327Z,15.39
2018-04-06T20:22:16.914Z,15.41
2018-04-06T20:24:44.561Z,15.45
2018-04-06T20:27:12.429Z,15.38
2018-04-06T20:29:40.284Z,15.40
2018-04-06T20:32:07.968Z,15.33
2018-04-06T20:34:35.887Z,15.30
2018-04-06T20:37:03.478Z,15.26
2018-04-06T20:39:31.075Z,15.20
2018-04-06T20:41:58.699Z,15.20
2018-04-06T20:44:26.321Z,15.19
2018-04-06T20:46:53.923Z,15.17
2018-04-06T20:49:21.563Z,15.05
2018-04-06T20:51:49.462Z,14.97
2018-04-06T20:54:17.124Z,14.92
2018-04-06T20:56:44.741Z,14.85
2018-04-06T20:59:12.324Z,14.83
2018-04-06T21:01:39.937Z,14.84
2018-04-06T21:04:07.962Z,14.84
2018-04-06T21:06:35.599Z,14.93
2018-04-06T21:09:03.189Z,14.91
2018-04-06T21:11:30.822Z,14.89
2018-04-06T21:13:58.406Z,14.90
2018-04-06T21:16:25.991Z,14.94
2018-04-06T21:18:53.751Z,14.90
2018-04-06T21:21:21.337Z,14.96
2018-04-06T21:23:49.074Z,14.90
2018-04-06T21:26:16.730Z,14.89
2018-04-06T21:28:44.355Z,14.89
2018-04-06T21:31:12.061Z,14.78
2018-04-06T21:33:39.722Z,14.72
2018-04-06T21:36:07.374Z,14.82
2018-04-06T21:38:35.000Z,14.78
2018-04-06T21:41:02.915Z,14.74
2018-04-06T21:43:30.628Z,14.71
2018-04-06T21:45:58.377Z,14.68
2018-04-06T21:48:26.100Z,14.72
2018-04-06T21:50:53.680Z,14.68
2018-04-06T21:53:21.274Z,14.66
2018-04-06T21:55:49.082Z,14.64
2018-04-06T21:58:16.683Z,14.59
2018-04-06T22:00:44.287Z,14.57
2018-04-06T22:03:12.106Z,14.58
2018-04-06T22:05:39.945Z,14.60
2018-04-06T22:08:07.607Z,14.59
2018-04-06T22:10:35.306Z,14.61
2018-04-06T22:13:03.042Z,14.63
2018-04-06T22:15:30.907Z,14.60
2018-04-06T22:17:58.523Z,14.58
2018-04-06T22:20:26.123Z,14.55
2018-04-06T22:22:53.851Z,14.49
2018-04-06T22:25:21.692Z,14.50
2018-04-06T22:27:49.728Z,14.53
2018-04-06T22:30:17.585Z,14.50
2018-04-06T22:32:45.256Z,14.36
2018-04-06T22:35:12.958Z,14.39
2018-04-06T22:37:40.772Z,14.39
2018-04-06T22:40:08.655Z,14.43
2018-04-06T22:42:36.282Z,14.45
2018-04-06T22:45:03.972Z,14.41
2018-04-06T22:47:31.573Z,14.50
2018-04-06T22:49:59.293Z,14.51
2018-04-06T22:52:26.860Z,14.53
2018-04-06T22:54:54.466Z,14.43
2018-04-06T22:57:22.057Z,14.48
2018-04-06T22:59:49.950Z,14.55
2018-04-06T23:02:17.802Z,14.53
2018-04-06T23:04:45.378Z,14.53
2018-04-06T23:07:13.006Z,14.47
2018-04-06T23:09:40.702Z,14.43
2018-04-06T23:12:08.311Z,14.48
2018-04-06T23:14:36.024Z,14.56
2018-04-06T23:17:03.686Z,14.57
2018-04-06T23:19:31.256Z,14.52
2018-04-06T23:21:58.846Z,14.50
2018-04-06T23:24:26.654Z,14.52
2018-04-06T23:26:54.759Z,14.59
2018-04-06T23:29:22.332Z,14.57
2018-04-06T23:31:50.167Z,14.52
2018-04-06T23:34:17.793Z,14.55
2018-04-06T23:36:45.603Z,14.55
2018-04-06T23:39:13.260Z,14.58
2018-04-06T23:41:41.004Z,14.57
2018-04-06T23:44:08.584Z,14.61
2018-04-06T23:46:36.323Z,14.64
2018-04-06T23:49:03.912Z,14.69
2018-04-06T23:51:31.678Z,14.58
2018-04-06T23:53:59.308Z,14.45
2018-04-06T23:56:26.897Z,14.38
2018-04-06T23:58:54.854Z,14.42
